sensor_id;sensor_type;location;lat;lon;timestamp;P1;durP1;ratioP1;P2;durP2;ratioP2
76826;SDS011;65788;52.284;20.890;2023-08-30T00:00:58;31.30;;;12.10;;
76826;SDS011;65788;52.284;20.890;2023-08-30T00:03:33;23.10;;;11.20;;
76826;SDS011;65788;52.284;20.890;2023-08-30T00:06:03;22.70;;;11.70;;
76826;SDS011;65788;52.284;20.890;2023-08-30T00:08:30;21.40;;;11.50;;
76826;SDS011;65788;52.284;20.890;2023-08-30T00:10:57;17.00;;;10.70;;
76826;SDS011;65788;52.284;20.890;2023-08-30T00:13:29;18.40;;;11.20;;
76826;SDS011;65788;52.284;20.890;2023-08-30T00:15:57;16.00;;;11.50;;
76826;SDS011;65788;52.284;20.890;2023-08-30T00:18:23;15.00;;;9.90;;
76826;SDS011;65788;52.284;20.890;2023-08-30T00:20:49;14.30;;;11.10;;
76826;SDS011;65788;52.284;20.890;2023-08-30T00:23:15;14.00;;;10.20;;
76826;SDS011;65788;52.284;20.890;2023-08-30T00:25:42;16.70;;;11.30;;
76826;SDS011;65788;52.284;20.890;2023-08-30T00:28:09;15.70;;;11.30;;
76826;SDS011;65788;52.284;20.890;2023-08-30T00:30:35;13.70;;;11.00;;
76826;SDS011;65788;52.284;20.890;2023-08-30T00:33:01;12.60;;;9.90;;
76826;SDS011;65788;52.284;20.890;2023-08-30T00:35:27;15.20;;;11.20;;
76826;SDS011;65788;52.284;20.890;2023-08-30T00:37:53;15.60;;;11.10;;
76826;SDS011;65788;52.284;20.890;2023-08-30T00:40:22;16.30;;;12.90;;
76826;SDS011;65788;52.284;20.890;2023-08-30T00:42:50;15.40;;;13.10;;
76826;SDS011;65788;52.284;20.890;2023-08-30T00:45:16;15.60;;;14.00;;
76826;SDS011;65788;52.284;20.890;2023-08-30T00:47:42;18.10;;;14.70;;
76826;SDS011;65788;52.284;20.890;2023-08-30T00:50:09;19.00;;;16.70;;
76826;SDS011;65788;52.284;20.890;2023-08-30T00:52:35;21.10;;;15.70;;
76826;SDS011;65788;52.284;20.890;2023-08-30T00:55:01;18.30;;;16.30;;
76826;SDS011;65788;52.284;20.890;2023-08-30T00:57:28;17.60;;;15.50;;
76826;SDS011;65788;52.284;20.890;2023-08-30T00:59:55;14.20;;;11.90;;
76826;SDS011;65788;52.284;20.890;2023-08-30T01:02:21;13.70;;;12.10;;
76826;SDS011;65788;52.284;20.890;2023-08-30T01:04:49;13.40;;;11.20;;
76826;SDS011;65788;52.284;20.890;2023-08-30T01:07:16;15.60;;;13.60;;
76826;SDS011;65788;52.284;20.890;2023-08-30T01:09:42;17.50;;;14.10;;
76826;SDS011;65788;52.284;20.890;2023-08-30T01:12:17;16.60;;;12.60;;
76826;SDS011;65788;52.284;20.890;2023-08-30T01:15:06;16.00;;;13.60;;
76826;SDS011;65788;52.284;20.890;2023-08-30T01:17:36;17.20;;;13.80;;
76826;SDS011;65788;52.284;20.890;2023-08-30T01:20:07;18.30;;;14.10;;
76826;SDS011;65788;52.284;20.890;2023-08-30T01:27:45;14.70;;;12.90;;
76826;SDS011;65788;52.284;20.890;2023-08-30T01:30:14;16.30;;;14.60;;
76826;SDS011;65788;52.284;20.890;2023-08-30T01:32:41;12.70;;;11.30;;
76826;SDS011;65788;52.284;20.890;2023-08-30T01:35:09;14.40;;;12.10;;
76826;SDS011;65788;52.284;20.890;2023-08-30T01:37:36;18.00;;;14.40;;
76826;SDS011;65788;52.284;20.890;2023-08-30T01:40:04;15.90;;;13.90;;
76826;SDS011;65788;52.284;20.890;2023-08-30T01:42:32;13.90;;;11.20;;
76826;SDS011;65788;52.284;20.890;2023-08-30T01:45:00;17.30;;;14.50;;
76826;SDS011;65788;52.284;20.890;2023-08-30T01:47:29;19.30;;;13.70;;
76826;SDS011;65788;52.284;20.890;2023-08-30T01:49:56;16.50;;;14.20;;
76826;SDS011;65788;52.284;20.890;2023-08-30T01:52:23;14.30;;;12.00;;
76826;SDS011;65788;52.284;20.890;2023-08-30T01:54:51;16.20;;;12.50;;
76826;SDS011;65788;52.284;20.890;2023-08-30T01:57:19;12.80;;;11.30;;
76826;SDS011;65788;52.284;20.890;2023-08-30T01:59:45;10.70;;;9.40;;
76826;SDS011;65788;52.284;20.890;2023-08-30T02:02:11;12.10;;;9.80;;
76826;SDS011;65788;52.284;20.890;2023-08-30T02:04:37;11.50;;;9.30;;
76826;SDS011;65788;52.284;20.890;2023-08-30T02:07:04;11.60;;;8.90;;
76826;SDS011;65788;52.284;20.890;2023-08-30T02:09:42;11.40;;;8.70;;
76826;SDS011;65788;52.284;20.890;2023-08-30T02:12:13;10.40;;;8.80;;
76826;SDS011;65788;52.284;20.890;2023-08-30T02:14:43;10.20;;;8.70;;
76826;SDS011;65788;52.284;20.890;2023-08-30T02:17:15;11.20;;;8.60;;
76826;SDS011;65788;52.284;20.890;2023-08-30T02:19:43;10.00;;;8.50;;
76826;SDS011;65788;52.284;20.890;2023-08-30T02:22:10;10.90;;;8.70;;
76826;SDS011;65788;52.284;20.890;2023-08-30T02:24:37;9.30;;;8.10;;
76826;SDS011;65788;52.284;20.890;2023-08-30T02:27:03;10.70;;;8.60;;
76826;SDS011;65788;52.284;20.890;2023-08-30T02:29:30;11.40;;;8.60;;
76826;SDS011;65788;52.284;20.890;2023-08-30T02:31:56;11.30;;;8.10;;
76826;SDS011;65788;52.284;20.890;2023-08-30T02:34:22;10.20;;;8.40;;
76826;SDS011;65788;52.284;20.890;2023-08-30T02:36:48;10.50;;;8.80;;
76826;SDS011;65788;52.284;20.890;2023-08-30T02:39:14;11.00;;;8.60;;
76826;SDS011;65788;52.284;20.890;2023-08-30T02:41:41;11.00;;;7.70;;
76826;SDS011;65788;52.284;20.890;2023-08-30T02:44:13;11.00;;;7.80;;
76826;SDS011;65788;52.284;20.890;2023-08-30T02:46:39;10.40;;;8.20;;
76826;SDS011;65788;52.284;20.890;2023-08-30T02:49:07;9.80;;;7.60;;
76826;SDS011;65788;52.284;20.890;2023-08-30T02:51:35;10.10;;;7.70;;
76826;SDS011;65788;52.284;20.890;2023-08-30T02:54:01;10.60;;;8.10;;
76826;SDS011;65788;52.284;20.890;2023-08-30T02:56:27;9.80;;;8.40;;
76826;SDS011;65788;52.284;20.890;2023-08-30T02:58:53;8.80;;;7.50;;
76826;SDS011;65788;52.284;20.890;2023-08-30T03:01:19;11.30;;;8.10;;
76826;SDS011;65788;52.284;20.890;2023-08-30T03:03:45;8.30;;;7.50;;
76826;SDS011;65788;52.284;20.890;2023-08-30T03:06:12;8.70;;;7.80;;
76826;SDS011;65788;52.284;20.890;2023-08-30T03:08:40;14.30;;;8.50;;
76826;SDS011;65788;52.284;20.890;2023-08-30T03:11:09;10.00;;;7.90;;
76826;SDS011;65788;52.284;20.890;2023-08-30T03:13:37;10.90;;;8.00;;
76826;SDS011;65788;52.284;20.890;2023-08-30T03:16:15;10.30;;;7.90;;
76826;SDS011;65788;52.284;20.890;2023-08-30T03:18:42;8.50;;;7.60;;
76826;SDS011;65788;52.284;20.890;2023-08-30T03:21:09;9.90;;;7.40;;
76826;SDS011;65788;52.284;20.890;2023-08-30T03:23:37;13.60;;;9.30;;
76826;SDS011;65788;52.284;20.890;2023-08-30T03:26:16;10.70;;;9.50;;
76826;SDS011;65788;52.284;20.890;2023-08-30T03:28:43;10.90;;;8.80;;
76826;SDS011;65788;52.284;20.890;2023-08-30T03:31:19;12.10;;;9.60;;
76826;SDS011;65788;52.284;20.890;2023-08-30T03:33:47;9.80;;;8.10;;
76826;SDS011;65788;52.284;20.890;2023-08-30T03:36:15;9.60;;;8.60;;
76826;SDS011;65788;52.284;20.890;2023-08-30T03:38:43;12.30;;;8.50;;
76826;SDS011;65788;52.284;20.890;2023-08-30T03:41:10;9.40;;;7.60;;
76826;SDS011;65788;52.284;20.890;2023-08-30T03:43:37;10.10;;;9.00;;
76826;SDS011;65788;52.284;20.890;2023-08-30T03:46:04;9.30;;;8.20;;
76826;SDS011;65788;52.284;20.890;2023-08-30T03:48:30;10.40;;;8.90;;
76826;SDS011;65788;52.284;20.890;2023-08-30T03:50:57;9.60;;;8.30;;
76826;SDS011;65788;52.284;20.890;2023-08-30T03:53:24;10.20;;;8.60;;
76826;SDS011;65788;52.284;20.890;2023-08-30T03:55:50;9.10;;;7.60;;
76826;SDS011;65788;52.284;20.890;2023-08-30T03:58:18;10.30;;;8.30;;
76826;SDS011;65788;52.284;20.890;2023-08-30T04:00:44;11.20;;;8.60;;
76826;SDS011;65788;52.284;20.890;2023-08-30T04:03:12;10.20;;;7.90;;
76826;SDS011;65788;52.284;20.890;2023-08-30T04:05:40;9.70;;;8.60;;
76826;SDS011;65788;52.284;20.890;2023-08-30T04:08:07;9.80;;;8.60;;
76826;SDS011;65788;52.284;20.890;2023-08-30T04:10:37;8.60;;;7.70;;
76826;SDS011;65788;52.284;20.890;2023-08-30T04:13:07;9.10;;;7.90;;
76826;SDS011;65788;52.284;20.890;2023-08-30T04:15:37;11.10;;;8.20;;
76826;SDS011;65788;52.284;20.890;2023-08-30T04:18:05;9.90;;;8.30;;
76826;SDS011;65788;52.284;20.890;2023-08-30T04:20:32;10.20;;;8.10;;
76826;SDS011;65788;52.284;20.890;2023-08-30T04:22:58;10.40;;;8.90;;
76826;SDS011;65788;52.284;20.890;2023-08-30T04:25:27;9.80;;;8.70;;
76826;SDS011;65788;52.284;20.890;2023-08-30T04:27:57;12.70;;;8.80;;
76826;SDS011;65788;52.284;20.890;2023-08-30T04:30:23;10.60;;;8.70;;
76826;SDS011;65788;52.284;20.890;2023-08-30T04:32:49;9.70;;;8.70;;
76826;SDS011;65788;52.284;20.890;2023-08-30T04:35:15;13.10;;;10.00;;
76826;SDS011;65788;52.284;20.890;2023-08-30T04:37:41;11.30;;;9.60;;
76826;SDS011;65788;52.284;20.890;2023-08-30T04:40:08;11.70;;;10.00;;
76826;SDS011;65788;52.284;20.890;2023-08-30T04:42:35;10.80;;;9.60;;
76826;SDS011;65788;52.284;20.890;2023-08-30T04:45:02;11.50;;;9.50;;
76826;SDS011;65788;52.284;20.890;2023-08-30T04:47:29;16.70;;;10.40;;
76826;SDS011;65788;52.284;20.890;2023-08-30T04:49:56;10.70;;;9.60;;
76826;SDS011;65788;52.284;20.890;2023-08-30T04:52:22;11.20;;;8.70;;
76826;SDS011;65788;52.284;20.890;2023-08-30T04:54:48;12.40;;;9.30;;
76826;SDS011;65788;52.284;20.890;2023-08-30T04:57:15;12.20;;;9.80;;
76826;SDS011;65788;52.284;20.890;2023-08-30T04:59:43;11.90;;;9.80;;
76826;SDS011;65788;52.284;20.890;2023-08-30T05:02:10;12.60;;;9.20;;
76826;SDS011;65788;52.284;20.890;2023-08-30T05:04:36;9.90;;;8.80;;
76826;SDS011;65788;52.284;20.890;2023-08-30T05:07:03;11.30;;;10.00;;
76826;SDS011;65788;52.284;20.890;2023-08-30T05:09:30;13.30;;;10.40;;
76826;SDS011;65788;52.284;20.890;2023-08-30T05:11:56;11.50;;;8.40;;
76826;SDS011;65788;52.284;20.890;2023-08-30T05:14:22;10.90;;;9.10;;
76826;SDS011;65788;52.284;20.890;2023-08-30T05:16:49;12.40;;;9.30;;
76826;SDS011;65788;52.284;20.890;2023-08-30T05:19:15;10.40;;;9.10;;
76826;SDS011;65788;52.284;20.890;2023-08-30T05:21:43;11.20;;;9.20;;
76826;SDS011;65788;52.284;20.890;2023-08-30T05:24:10;11.10;;;9.50;;
76826;SDS011;65788;52.284;20.890;2023-08-30T05:26:36;11.20;;;9.40;;
76826;SDS011;65788;52.284;20.890;2023-08-30T05:29:02;10.70;;;8.50;;
76826;SDS011;65788;52.284;20.890;2023-08-30T05:31:29;11.60;;;9.00;;
76826;SDS011;65788;52.284;20.890;2023-08-30T05:33:55;12.10;;;9.40;;
76826;SDS011;65788;52.284;20.890;2023-08-30T05:36:21;11.20;;;9.20;;
76826;SDS011;65788;52.284;20.890;2023-08-30T05:41:16;10.60;;;8.90;;
76826;SDS011;65788;52.284;20.890;2023-08-30T05:43:42;10.70;;;8.70;;
76826;SDS011;65788;52.284;20.890;2023-08-30T05:46:08;12.10;;;10.10;;
76826;SDS011;65788;52.284;20.890;2023-08-30T05:48:40;10.50;;;8.90;;
76826;SDS011;65788;52.284;20.890;2023-08-30T05:51:07;10.20;;;8.60;;
76826;SDS011;65788;52.284;20.890;2023-08-30T05:53:33;10.40;;;8.80;;
76826;SDS011;65788;52.284;20.890;2023-08-30T05:55:59;10.70;;;8.90;;
76826;SDS011;65788;52.284;20.890;2023-08-30T05:58:25;10.30;;;9.20;;
76826;SDS011;65788;52.284;20.890;2023-08-30T06:00:51;11.30;;;9.30;;
76826;SDS011;65788;52.284;20.890;2023-08-30T06:03:17;10.80;;;8.20;;
76826;SDS011;65788;52.284;20.890;2023-08-30T06:05:43;9.90;;;8.20;;
76826;SDS011;65788;52.284;20.890;2023-08-30T06:08:09;12.10;;;9.20;;
76826;SDS011;65788;52.284;20.890;2023-08-30T06:10:35;8.90;;;8.00;;
76826;SDS011;65788;52.284;20.890;2023-08-30T06:13:02;9.80;;;8.20;;
76826;SDS011;65788;52.284;20.890;2023-08-30T06:15:28;12.60;;;8.80;;
76826;SDS011;65788;52.284;20.890;2023-08-30T06:17:54;10.10;;;8.30;;
76826;SDS011;65788;52.284;20.890;2023-08-30T06:20:21;10.10;;;7.50;;
76826;SDS011;65788;52.284;20.890;2023-08-30T06:22:47;9.80;;;8.40;;
76826;SDS011;65788;52.284;20.890;2023-08-30T06:25:13;10.50;;;9.40;;
76826;SDS011;65788;52.284;20.890;2023-08-30T06:27:41;9.60;;;7.60;;
76826;SDS011;65788;52.284;20.890;2023-08-30T06:30:10;9.60;;;7.60;;
76826;SDS011;65788;52.284;20.890;2023-08-30T06:32:36;10.20;;;7.80;;
76826;SDS011;65788;52.284;20.890;2023-08-30T06:35:03;9.70;;;7.90;;
76826;SDS011;65788;52.284;20.890;2023-08-30T06:37:30;10.90;;;8.50;;
76826;SDS011;65788;52.284;20.890;2023-08-30T06:39:56;10.40;;;8.80;;
76826;SDS011;65788;52.284;20.890;2023-08-30T06:42:24;13.20;;;8.30;;
76826;SDS011;65788;52.284;20.890;2023-08-30T06:44:51;13.40;;;8.80;;
76826;SDS011;65788;52.284;20.890;2023-08-30T06:47:17;10.70;;;9.40;;
76826;SDS011;65788;52.284;20.890;2023-08-30T06:49:43;12.60;;;8.70;;
76826;SDS011;65788;52.284;20.890;2023-08-30T06:52:09;11.50;;;8.90;;
76826;SDS011;65788;52.284;20.890;2023-08-30T06:54:35;11.60;;;9.50;;
76826;SDS011;65788;52.284;20.890;2023-08-30T06:57:02;11.00;;;8.30;;
76826;SDS011;65788;52.284;20.890;2023-08-30T06:59:28;12.10;;;9.50;;
76826;SDS011;65788;52.284;20.890;2023-08-30T07:01:54;11.30;;;8.40;;
76826;SDS011;65788;52.284;20.890;2023-08-30T07:04:21;11.10;;;8.80;;
76826;SDS011;65788;52.284;20.890;2023-08-30T07:06:48;10.60;;;8.80;;
76826;SDS011;65788;52.284;20.890;2023-08-30T07:09:14;11.40;;;9.20;;
76826;SDS011;65788;52.284;20.890;2023-08-30T07:11:41;13.70;;;9.10;;
76826;SDS011;65788;52.284;20.890;2023-08-30T07:14:09;13.00;;;8.90;;
76826;SDS011;65788;52.284;20.890;2023-08-30T07:16:38;13.50;;;9.40;;
76826;SDS011;65788;52.284;20.890;2023-08-30T07:19:04;12.40;;;9.40;;
76826;SDS011;65788;52.284;20.890;2023-08-30T07:21:30;10.30;;;9.20;;
76826;SDS011;65788;52.284;20.890;2023-08-30T07:23:56;11.80;;;8.80;;
76826;SDS011;65788;52.284;20.890;2023-08-30T07:26:22;10.70;;;9.50;;
76826;SDS011;65788;52.284;20.890;2023-08-30T07:28:48;15.80;;;11.80;;
76826;SDS011;65788;52.284;20.890;2023-08-30T07:31:15;11.40;;;8.80;;
76826;SDS011;65788;52.284;20.890;2023-08-30T07:33:44;14.50;;;8.50;;
76826;SDS011;65788;52.284;20.890;2023-08-30T07:36:10;13.80;;;9.30;;
76826;SDS011;65788;52.284;20.890;2023-08-30T07:38:38;13.20;;;9.20;;
76826;SDS011;65788;52.284;20.890;2023-08-30T07:41:04;13.10;;;8.30;;
76826;SDS011;65788;52.284;20.890;2023-08-30T07:43:30;15.40;;;9.70;;
76826;SDS011;65788;52.284;20.890;2023-08-30T07:45:56;11.30;;;9.20;;
76826;SDS011;65788;52.284;20.890;2023-08-30T07:48:22;10.90;;;8.30;;
76826;SDS011;65788;52.284;20.890;2023-08-30T07:50:48;11.30;;;8.90;;
76826;SDS011;65788;52.284;20.890;2023-08-30T07:53:14;10.90;;;8.80;;
76826;SDS011;65788;52.284;20.890;2023-08-30T07:55:40;12.30;;;9.10;;
76826;SDS011;65788;52.284;20.890;2023-08-30T07:58:06;11.80;;;8.80;;
76826;SDS011;65788;52.284;20.890;2023-08-30T08:00:35;12.50;;;8.90;;
76826;SDS011;65788;52.284;20.890;2023-08-30T08:03:01;13.90;;;9.10;;
76826;SDS011;65788;52.284;20.890;2023-08-30T08:05:28;11.50;;;9.20;;
76826;SDS011;65788;52.284;20.890;2023-08-30T08:07:54;13.30;;;9.80;;
76826;SDS011;65788;52.284;20.890;2023-08-30T08:10:27;11.10;;;9.50;;
76826;SDS011;65788;52.284;20.890;2023-08-30T08:12:53;12.60;;;9.40;;
76826;SDS011;65788;52.284;20.890;2023-08-30T08:15:19;12.00;;;9.60;;
76826;SDS011;65788;52.284;20.890;2023-08-30T08:17:45;11.30;;;9.40;;
76826;SDS011;65788;52.284;20.890;2023-08-30T08:20:11;10.80;;;9.00;;
76826;SDS011;65788;52.284;20.890;2023-08-30T08:22:38;12.20;;;9.60;;
76826;SDS011;65788;52.284;20.890;2023-08-30T08:25:05;12.30;;;9.30;;
76826;SDS011;65788;52.284;20.890;2023-08-30T08:27:31;13.90;;;9.80;;
76826;SDS011;65788;52.284;20.890;2023-08-30T08:29:58;13.10;;;9.40;;
76826;SDS011;65788;52.284;20.890;2023-08-30T08:32:24;12.50;;;9.90;;
76826;SDS011;65788;52.284;20.890;2023-08-30T08:34:50;10.20;;;8.80;;
76826;SDS011;65788;52.284;20.890;2023-08-30T08:37:16;12.00;;;9.10;;
76826;SDS011;65788;52.284;20.890;2023-08-30T08:39:42;9.40;;;8.10;;
76826;SDS011;65788;52.284;20.890;2023-08-30T08:42:08;12.00;;;9.70;;
76826;SDS011;65788;52.284;20.890;2023-08-30T08:44:35;12.10;;;9.00;;
76826;SDS011;65788;52.284;20.890;2023-08-30T08:47:02;12.30;;;9.20;;
76826;SDS011;65788;52.284;20.890;2023-08-30T08:49:29;12.10;;;10.00;;
76826;SDS011;65788;52.284;20.890;2023-08-30T08:51:57;11.40;;;8.60;;
76826;SDS011;65788;52.284;20.890;2023-08-30T08:54:23;11.00;;;8.50;;
76826;SDS011;65788;52.284;20.890;2023-08-30T08:56:49;12.80;;;9.90;;
76826;SDS011;65788;52.284;20.890;2023-08-30T08:59:15;10.50;;;8.10;;
76826;SDS011;65788;52.284;20.890;2023-08-30T09:01:42;13.60;;;10.30;;
76826;SDS011;65788;52.284;20.890;2023-08-30T09:04:08;15.00;;;11.90;;
76826;SDS011;65788;52.284;20.890;2023-08-30T09:06:36;13.60;;;10.40;;
76826;SDS011;65788;52.284;20.890;2023-08-30T09:09:05;10.70;;;9.10;;
76826;SDS011;65788;52.284;20.890;2023-08-30T09:11:32;11.40;;;9.90;;
76826;SDS011;65788;52.284;20.890;2023-08-30T09:13:58;13.50;;;11.40;;
76826;SDS011;65788;52.284;20.890;2023-08-30T09:16:24;13.40;;;11.00;;
76826;SDS011;65788;52.284;20.890;2023-08-30T09:19:01;11.90;;;10.40;;
76826;SDS011;65788;52.284;20.890;2023-08-30T09:21:28;12.10;;;10.00;;
76826;SDS011;65788;52.284;20.890;2023-08-30T09:23:58;13.10;;;10.60;;
76826;SDS011;65788;52.284;20.890;2023-08-30T09:26:26;12.60;;;10.10;;
76826;SDS011;65788;52.284;20.890;2023-08-30T09:31:32;16.00;;;11.60;;
76826;SDS011;65788;52.284;20.890;2023-08-30T09:34:06;17.50;;;13.00;;
76826;SDS011;65788;52.284;20.890;2023-08-30T09:36:33;21.30;;;14.30;;
76826;SDS011;65788;52.284;20.890;2023-08-30T09:39:09;26.50;;;16.60;;
76826;SDS011;65788;52.284;20.890;2023-08-30T09:41:40;19.00;;;13.80;;
76826;SDS011;65788;52.284;20.890;2023-08-30T09:44:13;17.80;;;13.10;;
76826;SDS011;65788;52.284;20.890;2023-08-30T09:46:46;18.80;;;13.40;;
76826;SDS011;65788;52.284;20.890;2023-08-30T09:49:18;18.60;;;13.80;;
76826;SDS011;65788;52.284;20.890;2023-08-30T09:51:48;18.10;;;13.60;;
76826;SDS011;65788;52.284;20.890;2023-08-30T09:54:18;19.40;;;13.60;;
76826;SDS011;65788;52.284;20.890;2023-08-30T09:56:45;22.80;;;15.50;;
76826;SDS011;65788;52.284;20.890;2023-08-30T09:59:13;20.90;;;14.00;;
76826;SDS011;65788;52.284;20.890;2023-08-30T10:01:43;18.30;;;14.50;;
76826;SDS011;65788;52.284;20.890;2023-08-30T10:04:10;19.50;;;14.40;;
76826;SDS011;65788;52.284;20.890;2023-08-30T10:06:36;17.30;;;12.60;;
76826;SDS011;65788;52.284;20.890;2023-08-30T10:09:03;17.10;;;12.90;;
76826;SDS011;65788;52.284;20.890;2023-08-30T10:11:32;17.60;;;13.80;;
76826;SDS011;65788;52.284;20.890;2023-08-30T10:16:26;18.20;;;12.60;;
76826;SDS011;65788;52.284;20.890;2023-08-30T10:19:00;16.30;;;11.70;;
76826;SDS011;65788;52.284;20.890;2023-08-30T10:21:29;16.50;;;11.50;;
76826;SDS011;65788;52.284;20.890;2023-08-30T10:23:55;16.30;;;12.40;;
76826;SDS011;65788;52.284;20.890;2023-08-30T10:26:24;14.90;;;11.80;;
76826;SDS011;65788;52.284;20.890;2023-08-30T10:28:53;15.50;;;11.70;;
76826;SDS011;65788;52.284;20.890;2023-08-30T10:31:22;15.40;;;10.80;;
76826;SDS011;65788;52.284;20.890;2023-08-30T10:33:49;15.00;;;10.30;;
76826;SDS011;65788;52.284;20.890;2023-08-30T10:36:23;14.60;;;10.40;;
76826;SDS011;65788;52.284;20.890;2023-08-30T10:38:50;14.40;;;11.20;;
76826;SDS011;65788;52.284;20.890;2023-08-30T10:41:20;12.00;;;9.30;;
76826;SDS011;65788;52.284;20.890;2023-08-30T10:43:52;13.20;;;10.30;;
76826;SDS011;65788;52.284;20.890;2023-08-30T10:46:34;12.70;;;10.30;;
76826;SDS011;65788;52.284;20.890;2023-08-30T10:49:08;15.10;;;10.20;;
76826;SDS011;65788;52.284;20.890;2023-08-30T10:54:13;15.50;;;9.60;;
76826;SDS011;65788;52.284;20.890;2023-08-30T10:56:45;12.00;;;9.90;;
76826;SDS011;65788;52.284;20.890;2023-08-30T11:01:47;12.30;;;9.00;;
76826;SDS011;65788;52.284;20.890;2023-08-30T11:04:15;12.00;;;9.30;;
76826;SDS011;65788;52.284;20.890;2023-08-30T11:06:45;12.40;;;8.60;;
76826;SDS011;65788;52.284;20.890;2023-08-30T11:09:16;11.10;;;9.00;;
76826;SDS011;65788;52.284;20.890;2023-08-30T11:11:46;11.90;;;9.00;;
76826;SDS011;65788;52.284;20.890;2023-08-30T11:14:13;12.60;;;7.80;;
76826;SDS011;65788;52.284;20.890;2023-08-30T11:16:40;10.90;;;7.90;;
76826;SDS011;65788;52.284;20.890;2023-08-30T11:19:07;12.70;;;8.20;;
76826;SDS011;65788;52.284;20.890;2023-08-30T11:21:39;13.40;;;8.60;;
76826;SDS011;65788;52.284;20.890;2023-08-30T11:24:08;14.10;;;8.00;;
76826;SDS011;65788;52.284;20.890;2023-08-30T11:26:34;13.20;;;8.40;;
76826;SDS011;65788;52.284;20.890;2023-08-30T11:29:04;13.90;;;8.50;;
76826;SDS011;65788;52.284;20.890;2023-08-30T11:31:31;13.00;;;7.20;;
76826;SDS011;65788;52.284;20.890;2023-08-30T11:33:58;11.30;;;7.60;;
76826;SDS011;65788;52.284;20.890;2023-08-30T11:36:28;10.50;;;7.40;;
76826;SDS011;65788;52.284;20.890;2023-08-30T11:39:03;10.70;;;7.40;;
76826;SDS011;65788;52.284;20.890;2023-08-30T11:41:29;9.50;;;6.10;;
76826;SDS011;65788;52.284;20.890;2023-08-30T11:43:57;9.60;;;6.80;;
76826;SDS011;65788;52.284;20.890;2023-08-30T11:46:24;8.60;;;6.60;;
76826;SDS011;65788;52.284;20.890;2023-08-30T11:48:51;10.10;;;6.50;;
76826;SDS011;65788;52.284;20.890;2023-08-30T11:51:18;10.90;;;6.10;;
76826;SDS011;65788;52.284;20.890;2023-08-30T11:53:45;9.10;;;5.70;;
76826;SDS011;65788;52.284;20.890;2023-08-30T11:56:12;10.30;;;6.30;;
76826;SDS011;65788;52.284;20.890;2023-08-30T11:58:39;9.80;;;6.20;;
76826;SDS011;65788;52.284;20.890;2023-08-30T12:01:05;10.00;;;6.40;;
76826;SDS011;65788;52.284;20.890;2023-08-30T12:03:32;8.50;;;5.60;;
76826;SDS011;65788;52.284;20.890;2023-08-30T12:05:58;11.50;;;5.90;;
76826;SDS011;65788;52.284;20.890;2023-08-30T12:10:53;8.20;;;5.20;;
76826;SDS011;65788;52.284;20.890;2023-08-30T12:13:21;7.80;;;5.90;;
76826;SDS011;65788;52.284;20.890;2023-08-30T12:15:47;8.30;;;5.70;;
76826;SDS011;65788;52.284;20.890;2023-08-30T12:18:13;8.60;;;6.10;;
76826;SDS011;65788;52.284;20.890;2023-08-30T12:20:39;6.90;;;5.60;;
76826;SDS011;65788;52.284;20.890;2023-08-30T12:23:05;8.00;;;5.30;;
76826;SDS011;65788;52.284;20.890;2023-08-30T12:25:31;9.50;;;5.40;;
76826;SDS011;65788;52.284;20.890;2023-08-30T12:27:59;9.10;;;5.70;;
76826;SDS011;65788;52.284;20.890;2023-08-30T12:30:25;11.60;;;6.30;;
76826;SDS011;65788;52.284;20.890;2023-08-30T12:32:59;18.00;;;8.60;;
76826;SDS011;65788;52.284;20.890;2023-08-30T12:35:28;20.50;;;9.00;;
76826;SDS011;65788;52.284;20.890;2023-08-30T12:37:54;24.10;;;11.10;;
76826;SDS011;65788;52.284;20.890;2023-08-30T12:40:21;23.70;;;10.70;;
76826;SDS011;65788;52.284;20.890;2023-08-30T12:42:47;22.80;;;10.90;;
76826;SDS011;65788;52.284;20.890;2023-08-30T12:45:14;22.10;;;11.10;;
76826;SDS011;65788;52.284;20.890;2023-08-30T12:47:40;19.10;;;10.20;;
76826;SDS011;65788;52.284;20.890;2023-08-30T12:50:06;19.60;;;10.00;;
76826;SDS011;65788;52.284;20.890;2023-08-30T12:52:33;22.90;;;10.40;;
76826;SDS011;65788;52.284;20.890;2023-08-30T12:54:59;18.30;;;9.40;;
76826;SDS011;65788;52.284;20.890;2023-08-30T12:57:25;16.10;;;8.60;;
76826;SDS011;65788;52.284;20.890;2023-08-30T12:59:52;13.60;;;8.80;;
76826;SDS011;65788;52.284;20.890;2023-08-30T13:02:18;15.60;;;8.20;;
76826;SDS011;65788;52.284;20.890;2023-08-30T13:04:44;14.10;;;7.90;;
76826;SDS011;65788;52.284;20.890;2023-08-30T13:07:10;16.00;;;8.60;;
76826;SDS011;65788;52.284;20.890;2023-08-30T13:09:36;11.40;;;7.50;;
76826;SDS011;65788;52.284;20.890;2023-08-30T13:12:02;11.00;;;7.80;;
76826;SDS011;65788;52.284;20.890;2023-08-30T13:14:29;13.80;;;7.00;;
76826;SDS011;65788;52.284;20.890;2023-08-30T13:16:55;14.00;;;7.30;;
76826;SDS011;65788;52.284;20.890;2023-08-30T13:19:22;12.90;;;7.10;;
76826;SDS011;65788;52.284;20.890;2023-08-30T13:21:47;9.80;;;6.00;;
76826;SDS011;65788;52.284;20.890;2023-08-30T13:24:13;10.70;;;7.20;;
76826;SDS011;65788;52.284;20.890;2023-08-30T13:26:39;9.40;;;6.60;;
76826;SDS011;65788;52.284;20.890;2023-08-30T13:29:06;9.90;;;6.30;;
76826;SDS011;65788;52.284;20.890;2023-08-30T13:31:32;10.00;;;5.80;;
76826;SDS011;65788;52.284;20.890;2023-08-30T13:33:58;7.90;;;5.60;;
76826;SDS011;65788;52.284;20.890;2023-08-30T13:36:25;10.50;;;6.00;;
76826;SDS011;65788;52.284;20.890;2023-08-30T13:38:51;8.20;;;5.30;;
76826;SDS011;65788;52.284;20.890;2023-08-30T13:41:18;9.60;;;5.90;;
76826;SDS011;65788;52.284;20.890;2023-08-30T13:43:44;9.10;;;5.60;;
76826;SDS011;65788;52.284;20.890;2023-08-30T13:46:10;6.80;;;5.20;;
76826;SDS011;65788;52.284;20.890;2023-08-30T13:48:36;7.30;;;4.70;;
76826;SDS011;65788;52.284;20.890;2023-08-30T13:51:02;6.60;;;5.30;;
76826;SDS011;65788;52.284;20.890;2023-08-30T13:53:29;6.80;;;5.30;;
76826;SDS011;65788;52.284;20.890;2023-08-30T13:55:56;7.00;;;4.80;;
76826;SDS011;65788;52.284;20.890;2023-08-30T13:58:22;6.80;;;4.50;;
76826;SDS011;65788;52.284;20.890;2023-08-30T14:00:48;7.40;;;5.10;;
76826;SDS011;65788;52.284;20.890;2023-08-30T14:03:14;7.90;;;4.80;;
76826;SDS011;65788;52.284;20.890;2023-08-30T14:05:41;8.10;;;4.40;;
76826;SDS011;65788;52.284;20.890;2023-08-30T14:08:07;6.80;;;4.40;;
76826;SDS011;65788;52.284;20.890;2023-08-30T14:10:33;5.60;;;4.50;;
76826;SDS011;65788;52.284;20.890;2023-08-30T14:12:59;7.50;;;4.90;;
76826;SDS011;65788;52.284;20.890;2023-08-30T14:15:25;6.90;;;4.40;;
76826;SDS011;65788;52.284;20.890;2023-08-30T14:17:51;6.50;;;4.90;;
76826;SDS011;65788;52.284;20.890;2023-08-30T14:20:17;6.10;;;4.70;;
76826;SDS011;65788;52.284;20.890;2023-08-30T14:22:44;8.30;;;4.70;;
76826;SDS011;65788;52.284;20.890;2023-08-30T14:25:10;6.00;;;4.30;;
76826;SDS011;65788;52.284;20.890;2023-08-30T14:27:39;5.60;;;4.50;;
76826;SDS011;65788;52.284;20.890;2023-08-30T14:30:06;6.20;;;4.50;;
76826;SDS011;65788;52.284;20.890;2023-08-30T14:32:32;5.60;;;4.10;;
76826;SDS011;65788;52.284;20.890;2023-08-30T14:34:58;6.10;;;4.60;;
76826;SDS011;65788;52.284;20.890;2023-08-30T14:37:24;5.80;;;3.90;;
76826;SDS011;65788;52.284;20.890;2023-08-30T14:39:52;5.40;;;4.10;;
76826;SDS011;65788;52.284;20.890;2023-08-30T14:42:19;6.00;;;3.80;;